createdAt,value
2023-01-19T00:01:18.353Z,99915.63
2023-01-19T00:04:23.504Z,99918.19
2023-01-19T00:07:28.675Z,99916.47
2023-01-19T00:10:34.160Z,99921.50
2023-01-19T00:13:39.739Z,99913.13
2023-01-19T00:16:46.742Z,99911.47
2023-01-19T00:19:52.086Z,99913.97
2023-01-19T00:22:57.508Z,99922.34
2023-01-19T00:26:03.121Z,99917.31
2023-01-19T00:29:09.015Z,99915.69
2023-01-19T00:32:17.912Z,99913.13
2023-01-19T00:35:22.981Z,99914.81
2023-01-19T00:38:28.393Z,99906.44
2023-01-19T00:41:50.674Z,99913.13
2023-01-19T00:44:55.979Z,99910.63
2023-01-19T00:48:02.637Z,99912.28
2023-01-19T00:51:08.419Z,99908.09
2023-01-19T00:54:16.163Z,99911.50
2023-01-19T00:57:21.361Z,99909.78
2023-01-19T01:00:27.009Z,99913.13
2023-01-19T01:03:33.371Z,99920.69
2023-01-19T01:06:38.726Z,99924.91
2023-01-19T01:09:44.908Z,99926.56
2023-01-19T01:12:55.915Z,99927.41
2023-01-19T01:16:03.080Z,99929.09
2023-01-19T01:19:09.909Z,99930.78
2023-01-19T01:22:15.641Z,99937.44
2023-01-19T01:25:23.216Z,99933.25
2023-01-19T01:28:28.523Z,99936.59
2023-01-19T01:31:33.681Z,99932.41
2023-01-19T01:34:40.408Z,99931.59
2023-01-19T01:37:45.591Z,99929.94
2023-01-19T01:40:50.751Z,99931.56
2023-01-19T01:43:58.675Z,99929.88
2023-01-19T01:47:03.992Z,99932.41
2023-01-19T01:50:15.890Z,99922.28
2023-01-19T01:53:21.735Z,99919.84
2023-01-19T01:56:29.047Z,99925.66
2023-01-19T01:59:39.368Z,99918.94
2023-01-19T02:02:55.017Z,99923.13
2023-01-19T02:06:04.458Z,99922.28
2023-01-19T02:09:28.030Z,99930.69
2023-01-19T02:12:50.822Z,99921.47
2023-01-19T02:15:57.914Z,99915.59
2023-01-19T02:19:03.285Z,99919.75
2023-01-19T02:22:13.069Z,99922.28
2023-01-19T02:25:21.130Z,99922.28
2023-01-19T02:28:26.753Z,99923.13
2023-01-19T02:31:33.591Z,99919.75
2023-01-19T02:34:39.525Z,99922.25
2023-01-19T02:37:46.150Z,99925.59
2023-01-19T02:40:52.854Z,99924.75
2023-01-19T02:43:59.799Z,99926.41
2023-01-19T02:47:05.856Z,99930.63
2023-01-19T02:50:50.070Z,99923.06
2023-01-19T02:54:04.807Z,99939.81
2023-01-19T02:57:33.641Z,99939.00
2023-01-19T03:00:45.739Z,99939.00
2023-01-19T03:03:55.998Z,99945.69
2023-01-19T03:07:07.568Z,99953.25
2023-01-19T03:10:19.214Z,99949.06
2023-01-19T03:13:31.266Z,99952.41
2023-01-19T03:16:40.910Z,99956.59
2023-01-19T03:19:47.756Z,99951.56
2023-01-19T03:22:57.057Z,99964.16
2023-01-19T03:26:02.997Z,99959.94
2023-01-19T03:29:11.853Z,99966.66
2023-01-19T03:32:19.146Z,99978.41
2023-01-19T03:35:26.162Z,99972.50
2023-01-19T03:38:35.006Z,99972.50
2023-01-19T03:41:41.498Z,99980.91
2023-01-19T03:44:51.380Z,99981.75
2023-01-19T03:47:57.503Z,99977.56
2023-01-19T03:51:05.989Z,99985.06
2023-01-19T03:54:12.554Z,99991.81
2023-01-19T03:57:18.737Z,99983.38
2023-01-19T04:00:28.145Z,99984.22
2023-01-19T04:03:33.273Z,99979.22
2023-01-19T04:06:38.455Z,99982.53
2023-01-19T04:09:43.696Z,99985.09
2023-01-19T04:12:49.492Z,99978.38
2023-01-19T04:16:01.540Z,99996.78
2023-01-19T04:19:06.736Z,99991.81
2023-01-19T04:22:13.142Z,99996.00
2023-01-19T04:25:18.461Z,100001.88
2023-01-19T04:28:23.500Z,99995.16
2023-01-19T04:31:31.353Z,99997.69
2023-01-19T04:34:36.653Z,99997.69
2023-01-19T04:37:41.757Z,100001.03
2023-01-19T04:40:46.807Z,100003.56
2023-01-19T04:43:52.017Z,100006.06
2023-01-19T04:46:58.679Z,100008.63
2023-01-19T04:50:05.741Z,100011.13
2023-01-19T04:53:11.061Z,100004.44
2023-01-19T04:56:15.986Z,100009.47
2023-01-19T04:59:21.655Z,100013.69
2023-01-19T05:02:28.547Z,100027.09
2023-01-19T05:05:34.297Z,100021.22
2023-01-19T05:08:42.549Z,100025.44
2023-01-19T05:11:48.503Z,100029.59
2023-01-19T05:14:54.000Z,100027.97
2023-01-19T05:18:00.769Z,100024.59
2023-01-19T05:21:06.437Z,100025.44
2023-01-19T05:24:15.440Z,100039.69
2023-01-19T05:27:20.589Z,100041.34
2023-01-19T05:30:25.884Z,100036.31
2023-01-19T05:33:32.335Z,100039.69
2023-01-19T05:36:37.442Z,100035.50
2023-01-19T05:39:42.538Z,100043.84
2023-01-19T05:42:48.612Z,100036.31
2023-01-19T05:45:53.940Z,100042.19
2023-01-19T05:49:01.749Z,100045.53
2023-01-19T05:52:07.009Z,100048.03
2023-01-19T05:55:15.558Z,100047.22
2023-01-19T05:58:20.825Z,100043.88
2023-01-19T06:01:26.865Z,100046.38
2023-01-19T06:04:36.804Z,100067.34
2023-01-19T06:07:42.589Z,100063.16
2023-01-19T06:10:47.888Z,100068.19
2023-01-19T06:13:53.863Z,100062.31
2023-01-19T06:16:59.225Z,100071.53
2023-01-19T06:20:07.289Z,100080.72
2023-01-19T06:23:15.284Z,100092.44
2023-01-19T06:26:20.751Z,100087.41
2023-01-19T06:29:28.709Z,100104.16
2023-01-19T06:32:34.795Z,100098.31
2023-01-19T06:35:43.896Z,100105.84
2023-01-19T06:38:48.743Z,100103.34
2023-01-19T06:41:54.061Z,100111.72
2023-01-19T06:44:59.132Z,100124.25
2023-01-19T06:48:04.479Z,100120.91
2023-01-19T06:51:11.138Z,100122.59
2023-01-19T06:54:16.793Z,100131.78
2023-01-19T06:57:22.800Z,100145.19
2023-01-19T07:00:29.123Z,100135.16
2023-01-19T07:03:34.846Z,100137.66
2023-01-19T07:06:42.275Z,100145.19
2023-01-19T07:09:48.390Z,100142.66
2023-01-19T07:12:55.066Z,100151.03
2023-01-19T07:16:01.033Z,100157.72
2023-01-19T07:19:07.506Z,100164.44
2023-01-19T07:22:14.060Z,100171.13
2023-01-19T07:25:21.505Z,100174.44
2023-01-19T07:28:29.319Z,100177.81
2023-01-19T07:31:34.534Z,100181.16
2023-01-19T07:34:39.755Z,100187.91
2023-01-19T07:37:46.144Z,100190.38
2023-01-19T07:40:51.649Z,100187.81
2023-01-19T07:43:56.886Z,100202.09
2023-01-19T07:47:01.628Z,100206.28
2023-01-19T07:50:08.004Z,100214.66
2023-01-19T07:53:20.029Z,100210.47
2023-01-19T07:56:27.916Z,100222.22
2023-01-19T07:59:33.889Z,100209.66
2023-01-19T08:02:41.412Z,100227.25
2023-01-19T08:05:46.792Z,100220.56
2023-01-19T08:08:54.725Z,100231.41
2023-01-19T08:12:00.565Z,100229.75
2023-01-19T08:15:08.208Z,100239.84
2023-01-19T08:18:16.696Z,100243.19
2023-01-19T08:21:21.771Z,100240.69
2023-01-19T08:24:29.224Z,100249.13
2023-01-19T08:27:34.537Z,100257.50
2023-01-19T08:30:40.395Z,100255.03
2023-01-19T08:33:45.719Z,100254.19
2023-01-19T08:36:50.820Z,100260.94
2023-01-19T08:39:57.142Z,100252.53
2023-01-19T08:43:03.781Z,100265.91
2023-01-19T08:46:12.613Z,100256.69
2023-01-19T08:49:18.465Z,100272.66
2023-01-19T08:52:24.826Z,100270.16
2023-01-19T08:55:31.847Z,100271.00
2023-01-19T08:58:38.151Z,100271.03
2023-01-19T09:01:43.892Z,100276.03
2023-01-19T09:04:50.303Z,100284.44
2023-01-19T09:07:55.368Z,100291.97
2023-01-19T09:11:01.905Z,100286.94
2023-01-19T09:14:07.179Z,100291.97
2023-01-19T09:17:15.097Z,100298.69
2023-01-19T09:20:20.451Z,100293.66
2023-01-19T09:23:26.195Z,100297.88
2023-01-19T09:26:33.866Z,100297.00
2023-01-19T09:29:39.799Z,100308.75
2023-01-19T09:32:45.133Z,100307.94
2023-01-19T09:35:51.928Z,100317.19
2023-01-19T09:38:57.993Z,100307.94
2023-01-19T09:42:13.432Z,100311.28
2023-01-19T09:45:24.224Z,100324.72
2023-01-19T09:48:34.824Z,100321.38
2023-01-19T09:51:43.133Z,100332.28
2023-01-19T09:59:01.233Z,100338.97
2023-01-19T10:02:31.038Z,100342.31
2023-01-19T10:05:47.339Z,100330.56
2023-01-19T10:09:04.874Z,100347.34
2023-01-19T10:12:25.764Z,100351.56
2023-01-19T10:15:59.363Z,100356.63
2023-01-19T10:19:23.128Z,100365.84
2023-01-19T10:22:32.379Z,100364.19
2023-01-19T10:25:55.090Z,100367.53
2023-01-19T10:29:11.768Z,100366.69
2023-01-19T10:32:39.539Z,100360.81
2023-01-19T10:35:49.806Z,100366.69
2023-01-19T10:39:11.658Z,100370.91
2023-01-19T10:45:39.767Z,100378.44
2023-01-19T10:49:21.966Z,100382.63
2023-01-19T10:52:39.021Z,100390.16
2023-01-19T10:55:51.457Z,100399.38
2023-01-19T10:59:49.804Z,100393.50
2023-01-19T11:06:33.061Z,100396.03
2023-01-19T11:09:38.420Z,100391.00
2023-01-19T11:12:48.299Z,100406.09
2023-01-19T11:15:57.817Z,100396.81
2023-01-19T11:19:03.664Z,100409.44
2023-01-19T11:22:22.444Z,100408.59
2023-01-19T11:25:31.230Z,100404.44
2023-01-19T11:28:38.123Z,100407.81
2023-01-19T11:31:43.522Z,100408.63
2023-01-19T11:34:48.923Z,100416.22
2023-01-19T11:38:07.880Z,100412.81
2023-01-19T11:41:19.344Z,100417.88
2023-01-19T11:44:26.656Z,100418.72
2023-01-19T11:47:37.623Z,100420.41
2023-01-19T11:50:44.107Z,100432.94
2023-01-19T11:53:53.778Z,100443.03
2023-01-19T11:57:02.037Z,100442.19
2023-01-19T12:00:28.760Z,100449.75
2023-01-19T12:03:38.793Z,100444.72
2023-01-19T12:06:47.760Z,100455.63
2023-01-19T12:09:56.898Z,100453.13
2023-01-19T12:13:02.622Z,100457.31
2023-01-19T12:16:10.504Z,100462.31
2023-01-19T12:19:19.476Z,100457.28
2023-01-19T12:22:28.566Z,100470.72
2023-01-19T12:25:46.499Z,100474.09
2023-01-19T12:28:53.489Z,100478.28
2023-01-19T12:32:21.437Z,100469.03
2023-01-19T12:35:58.402Z,100470.75
2023-01-19T12:39:04.709Z,100476.56
2023-01-19T12:42:17.577Z,100481.59
2023-01-19T12:45:25.823Z,100472.41
2023-01-19T12:48:34.747Z,100479.97
2023-01-19T12:51:40.552Z,100476.59
2023-01-19T12:54:53.568Z,100495.06
2023-01-19T12:58:03.791Z,100490.88
2023-01-19T13:01:16.708Z,100492.53
2023-01-19T13:04:32.689Z,100500.13
2023-01-19T13:08:11.477Z,100508.50
2023-01-19T13:11:23.810Z,100512.69
2023-01-19T13:14:41.335Z,100513.47
2023-01-19T13:17:50.671Z,100519.41
2023-01-19T13:21:00.178Z,100523.59
2023-01-19T13:24:07.356Z,100531.16
2023-01-19T13:27:14.207Z,100526.16
2023-01-19T13:30:22.383Z,100539.59
2023-01-19T13:33:31.017Z,100544.59
2023-01-19T13:36:38.424Z,100550.44
2023-01-19T13:39:44.931Z,100550.47
2023-01-19T13:42:50.634Z,100543.72
2023-01-19T13:45:57.491Z,100560.53
2023-01-19T13:49:05.833Z,100548.72
2023-01-19T13:52:17.069Z,100551.22
2023-01-19T13:55:22.972Z,100566.28
2023-01-19T13:58:30.375Z,100565.47
2023-01-19T14:01:37.745Z,100561.28
2023-01-19T14:04:43.111Z,100571.25
2023-01-19T14:07:49.252Z,100575.44
2023-01-19T14:11:03.209Z,100584.66
2023-01-19T14:14:24.564Z,100584.59
2023-01-19T14:17:32.261Z,100582.06
2023-01-19T14:20:37.781Z,100587.84
2023-01-19T14:23:48.353Z,100595.38
2023-01-19T14:26:54.928Z,100601.22
2023-01-19T14:30:18.998Z,100597.06
2023-01-19T14:33:43.800Z,100610.50
2023-01-19T14:36:52.718Z,100604.66
2023-01-19T14:40:01.867Z,100616.41
2023-01-19T14:43:12.319Z,100610.50
2023-01-19T14:46:20.307Z,100618.84
2023-01-19T14:49:31.255Z,100614.59
2023-01-19T14:52:39.951Z,100605.38
2023-01-19T14:55:48.913Z,100617.97
2023-01-19T14:58:54.060Z,100616.22
2023-01-19T15:01:59.864Z,100614.56
2023-01-19T15:05:08.845Z,100614.63
2023-01-19T15:08:17.399Z,100617.94
2023-01-19T15:11:27.273Z,100624.63
2023-01-19T15:14:32.545Z,100626.16
2023-01-19T15:17:37.978Z,100629.50
2023-01-19T15:20:44.584Z,100638.69
2023-01-19T15:23:49.748Z,100637.88
2023-01-19T15:26:54.541Z,100645.38
2023-01-19T15:29:59.920Z,100647.91
2023-01-19T15:33:05.493Z,100657.06
2023-01-19T15:36:18.135Z,100657.06
2023-01-19T15:39:23.801Z,100654.59
2023-01-19T15:42:29.293Z,100651.13
2023-01-19T15:45:36.816Z,100650.41
2023-01-19T15:48:42.143Z,100661.22
2023-01-19T15:51:48.906Z,100660.31
2023-01-19T15:54:53.981Z,100663.66
2023-01-19T15:58:01.700Z,100664.50
2023-01-19T16:01:06.828Z,100674.50
2023-01-19T16:04:13.332Z,100675.31
2023-01-19T16:07:19.978Z,100667.75
2023-01-19T16:10:25.537Z,100666.06
2023-01-19T16:13:31.128Z,100682.81
2023-01-19T16:16:36.432Z,100676.06
2023-01-19T16:19:41.594Z,100681.97
2023-01-19T16:22:48.512Z,100683.53
2023-01-19T16:25:58.424Z,100691.94
2023-01-19T16:29:07.998Z,100687.66
2023-01-19T16:32:15.263Z,100691.00
2023-01-19T16:35:21.530Z,100695.97
2023-01-19T16:38:28.158Z,100705.19
2023-01-19T16:41:36.099Z,100699.31
2023-01-19T16:44:41.547Z,100706.94
2023-01-19T16:47:50.621Z,100702.69
2023-01-19T16:51:03.286Z,100715.22
2023-01-19T16:54:13.668Z,100718.53
2023-01-19T16:57:18.940Z,100731.84
2023-01-19T17:00:24.255Z,100730.88
2023-01-19T17:03:29.332Z,100732.53
2023-01-19T17:06:34.652Z,100727.59
2023-01-19T17:09:41.418Z,100729.31
2023-01-19T17:12:46.976Z,100727.59
2023-01-19T17:15:52.115Z,100730.13
2023-01-19T17:18:59.217Z,100728.44
2023-01-19T17:22:04.372Z,100732.66
2023-01-19T17:25:11.569Z,100742.72
2023-01-19T17:28:17.326Z,100747.69
2023-01-19T17:31:26.173Z,100756.88
2023-01-19T17:34:31.259Z,100760.34
2023-01-19T17:37:36.470Z,100759.50
2023-01-19T17:40:43.148Z,100770.47
2023-01-19T17:43:51.454Z,100766.28
2023-01-19T17:46:59.818Z,100768.81
2023-01-19T17:50:08.194Z,100770.50
2023-01-19T17:53:14.006Z,100774.72
2023-01-19T17:56:22.730Z,100781.38
2023-01-19T17:59:29.178Z,100777.88
2023-01-19T18:02:34.603Z,100784.56
2023-01-19T18:05:40.010Z,100791.34
2023-01-19T18:08:48.872Z,100788.81
2023-01-19T18:11:55.398Z,100787.97
2023-01-19T18:15:00.893Z,100785.47
2023-01-19T18:18:06.952Z,100798.88
2023-01-19T18:21:15.236Z,100801.34
2023-01-19T18:24:20.658Z,100797.19
2023-01-19T18:30:46.693Z,100796.38
2023-01-19T18:33:53.129Z,100800.69
2023-01-19T18:37:01.453Z,100800.69
2023-01-19T18:40:08.531Z,100808.25
2023-01-19T18:43:20.293Z,100797.44
2023-01-19T18:46:34.882Z,100800.84
2023-01-19T18:49:40.068Z,100812.56
2023-01-19T18:52:49.547Z,100814.31
2023-01-19T18:55:57.432Z,100813.50
2023-01-19T18:59:05.127Z,100818.50
2023-01-19T19:02:11.970Z,100821.00
2023-01-19T19:05:17.386Z,100826.06
2023-01-19T19:08:22.494Z,100827.66
2023-01-19T19:11:27.955Z,100821.78
2023-01-19T19:14:34.546Z,100834.38
2023-01-19T19:17:39.684Z,100836.91
2023-01-19T19:20:44.986Z,100846.06
2023-01-19T19:23:52.670Z,100840.25
2023-01-19T19:26:57.812Z,100842.75
2023-01-19T19:30:04.804Z,100838.53
2023-01-19T19:33:15.828Z,100838.56
2023-01-19T19:36:21.707Z,100840.19
2023-01-19T19:39:27.215Z,100842.72
2023-01-19T19:42:32.810Z,100849.41
2023-01-19T19:45:39.677Z,100861.13
2023-01-19T19:48:44.732Z,100859.44
2023-01-19T19:51:49.881Z,100861.19
2023-01-19T19:54:55.063Z,100868.78
2023-01-19T19:58:00.374Z,100860.34
2023-01-19T20:01:11.998Z,100869.75
2023-01-19T20:04:20.306Z,100873.03
2023-01-19T20:07:25.746Z,100886.31
2023-01-19T20:10:32.140Z,100877.16
2023-01-19T20:13:38.579Z,100876.34
2023-01-19T20:16:47.479Z,100886.50
2023-01-19T20:19:53.301Z,100887.28
2023-01-19T20:22:59.922Z,100879.00
2023-01-19T20:26:07.510Z,100873.91
2023-01-19T20:29:14.337Z,100883.16
2023-01-19T20:32:21.399Z,100894.97
2023-01-19T20:35:26.858Z,100904.13
2023-01-19T20:38:31.986Z,100891.44
2023-01-19T20:41:43.455Z,100899.06
2023-01-19T20:44:49.753Z,100906.59
2023-01-19T20:47:56.556Z,100899.91
2023-01-19T20:51:03.689Z,100903.28
2023-01-19T20:54:10.819Z,100909.84
2023-01-19T20:57:16.216Z,100907.28
2023-01-19T21:00:22.035Z,100908.97
2023-01-19T21:03:29.623Z,100913.13
2023-01-19T21:06:35.112Z,100916.59
2023-01-19T21:09:40.059Z,100920.84
2023-01-19T21:12:45.213Z,100926.66
2023-01-19T21:15:50.254Z,100924.13
2023-01-19T21:18:56.971Z,100931.72
2023-01-19T21:22:02.643Z,100927.41
2023-01-19T21:25:08.623Z,100930.75
2023-01-19T21:28:13.679Z,100938.31
2023-01-19T21:31:18.994Z,100935.75
2023-01-19T21:34:25.646Z,100937.50
2023-01-19T21:37:31.415Z,100941.66
2023-01-19T21:40:37.997Z,100936.56
2023-01-19T21:43:43.493Z,100939.03
2023-01-19T21:46:49.452Z,100949.94
2023-01-19T21:49:56.135Z,100951.75
2023-01-19T21:53:01.205Z,100950.97
2023-01-19T21:56:08.418Z,100958.44
2023-01-19T21:59:15.910Z,100959.13
2023-01-19T22:02:37.196Z,100969.03
2023-01-19T22:05:44.542Z,100973.97
2023-01-19T22:08:49.945Z,100972.25
2023-01-19T22:11:55.013Z,100968.28
2023-01-19T22:14:59.869Z,100978.59
2023-01-19T22:18:05.309Z,100982.13
2023-01-19T22:21:16.084Z,100978.81
2023-01-19T22:24:21.177Z,100976.00
2023-01-19T22:27:26.336Z,100989.16
2023-01-19T22:30:31.659Z,100993.97
2023-01-19T22:33:37.522Z,101006.69
2023-01-19T22:36:43.886Z,101000.00
2023-01-19T22:39:48.987Z,101005.03
2023-01-19T22:42:54.347Z,101006.69
2023-01-19T22:45:59.636Z,100993.28
2023-01-19T22:49:05.467Z,101006.53
2023-01-19T22:52:13.807Z,100999.16
2023-01-19T22:55:18.876Z,101011.56
2023-01-19T22:58:24.261Z,101009.81
2023-01-19T23:01:33.553Z,101011.47
2023-01-19T23:04:39.556Z,101017.25
2023-01-19T23:07:46.014Z,101008.94
2023-01-19T23:10:51.122Z,101018.69
2023-01-19T23:13:57.636Z,101024.56
2023-01-19T23:17:02.898Z,101021.28
2023-01-19T23:20:09.416Z,101030.47
2023-01-19T23:23:16.037Z,101020.44
2023-01-19T23:26:22.003Z,101030.50
2023-01-19T23:29:26.837Z,101024.72
2023-01-19T23:32:32.157Z,101018.78
2023-01-19T23:35:37.536Z,101035.59
2023-01-19T23:38:48.483Z,101032.94
2023-01-19T23:41:53.637Z,101036.94
2023-01-19T23:44:58.731Z,101036.81
2023-01-19T23:48:05.127Z,101041.09
2023-01-19T23:51:11.690Z,101036.97
2023-01-19T23:54:18.533Z,101037.06
2023-01-19T23:57:25.074Z,101048.84
